N2JP KBWI-TXKF
Flight info
| Callsign | N2JP |
|---|---|
| Flight time | 1h 39m |
| Altitude | 45000 |
| Route | DUKPN1 DONIL DCT CORNE B24 WEBBB/M086F450 DCT DARUX L459 DASER MOMOM1 |
| Aircraft | C750/M-SBDE3FGHRWXY/S |
Departure
| Time | 2026-04-27 19:45 |
|---|---|
| Airport | Baltimore/Washington International Thurgood Marshall Airport (KBWI) |
Arrival
| Time | 2026-04-27 21:24 |
|---|---|
| Airport | L.F. Wade International Airport (TXKF) |
| Time | Latitude | Longitude | Altitude | Speed | Heading |
|---|---|---|---|---|---|
| 2026-04-27 19:27 | 39.18534 | -76.65776 | 137 ft | 0 kts | 142° |
| 2026-04-27 19:34 | 39.18532 | -76.65774 | 137 ft | 1 kts | 142° |
| 2026-04-27 19:35 | 39.18523 | -76.65768 | 137 ft | 2 kts | 163° |
| 2026-04-27 19:35 | 39.18506 | -76.65761 | 137 ft | 4 kts | 165° |
| 2026-04-27 19:35 | 39.18498 | -76.65768 | 137 ft | 3 kts | 215° |
| 2026-04-27 19:35 | 39.18472 | -76.65793 | 136 ft | 6 kts | 219° |
| 2026-04-27 19:36 | 39.18431 | -76.65840 | 134 ft | 10 kts | 230° |
| 2026-04-27 19:36 | 39.18426 | -76.65923 | 134 ft | 10 kts | 295° |
| 2026-04-27 19:36 | 39.18421 | -76.65997 | 133 ft | 10 kts | 235° |
| 2026-04-27 19:36 | 39.18380 | -76.66071 | 134 ft | 10 kts | 234° |
| 2026-04-27 19:37 | 39.18338 | -76.66097 | 136 ft | 4 kts | 173° |
| 2026-04-27 19:37 | 39.18321 | -76.66090 | 137 ft | 2 kts | 159° |
| 2026-04-27 19:37 | 39.18303 | -76.66080 | 138 ft | 4 kts | 158° |
| 2026-04-27 19:37 | 39.18266 | -76.66061 | 140 ft | 9 kts | 158° |
| 2026-04-27 19:38 | 39.18215 | -76.66033 | 144 ft | 7 kts | 157° |
| 2026-04-27 19:38 | 39.18163 | -76.66005 | 146 ft | 9 kts | 157° |
| 2026-04-27 19:38 | 39.18089 | -76.65973 | 147 ft | 12 kts | 180° |
| 2026-04-27 19:38 | 39.18046 | -76.66039 | 150 ft | 11 kts | 284° |
| 2026-04-27 19:39 | 39.18059 | -76.66108 | 151 ft | 7 kts | 230° |
| 2026-04-27 19:39 | 39.18007 | -76.66157 | 151 ft | 11 kts | 210° |
| 2026-04-27 19:39 | 39.17929 | -76.66220 | 152 ft | 15 kts | 213° |
| 2026-04-27 19:39 | 39.17828 | -76.66304 | 151 ft | 19 kts | 211° |
| 2026-04-27 19:40 | 39.17703 | -76.66402 | 151 ft | 23 kts | 211° |
| 2026-04-27 19:40 | 39.17569 | -76.66520 | 151 ft | 18 kts | 212° |
| 2026-04-27 19:40 | 39.17522 | -76.66659 | 150 ft | 20 kts | 278° |
| 2026-04-27 19:40 | 39.17528 | -76.66793 | 152 ft | 15 kts | 275° |
| 2026-04-27 19:41 | 39.17537 | -76.66938 | 152 ft | 16 kts | 278° |
| 2026-04-27 19:41 | 39.17577 | -76.67044 | 152 ft | 12 kts | 270° |
| 2026-04-27 19:41 | 39.17511 | -76.67058 | 149 ft | 12 kts | 137° |
| 2026-04-27 19:41 | 39.17477 | -76.66956 | 150 ft | 14 kts | 95° |
| 2026-04-27 19:42 | 39.17464 | -76.66822 | 151 ft | 17 kts | 97° |
| 2026-04-27 19:42 | 39.17454 | -76.66649 | 150 ft | 22 kts | 99° |
| 2026-04-27 19:42 | 39.17322 | -76.66601 | 148 ft | 24 kts | 184° |
| 2026-04-27 19:42 | 39.17144 | -76.66614 | 149 ft | 28 kts | 184° |
| 2026-04-27 19:43 | 39.16991 | -76.66524 | 146 ft | 26 kts | 147° |
| 2026-04-27 19:43 | 39.16830 | -76.66376 | 141 ft | 31 kts | 144° |
| 2026-04-27 19:43 | 39.16637 | -76.66198 | 133 ft | 34 kts | 145° |
| 2026-04-27 19:43 | 39.16534 | -76.66108 | 133 ft | 10 kts | 179° |
| 2026-04-27 19:44 | 39.16502 | -76.66142 | 135 ft | 4 kts | 219° |
| 2026-04-27 19:44 | 39.16481 | -76.66164 | 137 ft | 4 kts | 219° |
| 2026-04-27 19:44 | 39.16444 | -76.66235 | 140 ft | 14 kts | 261° |
| 2026-04-27 19:44 | 39.16506 | -76.66322 | 141 ft | 25 kts | 324° |
| 2026-04-27 19:45 | 39.16952 | -76.66732 | 146 ft | 132 kts | 324° |
| 2026-04-27 19:45 | 39.17802 | -76.67524 | 523 ft | 157 kts | 325° |
| 2026-04-27 19:45 | 39.18679 | -76.68437 | 1249 ft | 168 kts | 315° |
| 2026-04-27 19:45 | 39.19110 | -76.69788 | 1980 ft | 167 kts | 276° |
| 2026-04-27 19:46 | 39.19058 | -76.71282 | 2565 ft | 180 kts | 254° |
| 2026-04-27 19:46 | 39.18378 | -76.72742 | 2920 ft | 205 kts | 224° |
| 2026-04-27 19:46 | 39.17050 | -76.73630 | 3269 ft | 232 kts | 187° |
| 2026-04-27 19:46 | 39.15437 | -76.73326 | 4076 ft | 238 kts | 154° |
| 2026-04-27 19:47 | 39.13997 | -76.72308 | 5177 ft | 239 kts | 147° |
| 2026-04-27 19:47 | 39.12554 | -76.71177 | 6098 ft | 245 kts | 146° |
| 2026-04-27 19:47 | 39.11095 | -76.70074 | 7030 ft | 238 kts | 148° |
| 2026-04-27 19:47 | 39.09617 | -76.68948 | 7006 ft | 247 kts | 143° |
| 2026-04-27 19:48 | 39.08547 | -76.67245 | 6987 ft | 250 kts | 114° |
| 2026-04-27 19:48 | 39.08228 | -76.64988 | 7080 ft | 275 kts | 87° |
| 2026-04-27 19:48 | 39.08337 | -76.62588 | 8261 ft | 269 kts | 85° |
| 2026-04-27 19:48 | 39.08429 | -76.60127 | 9105 ft | 281 kts | 85° |
| 2026-04-27 19:49 | 39.08518 | -76.57587 | 10007 ft | 287 kts | 84° |
| 2026-04-27 19:49 | 39.08622 | -76.54950 | 10476 ft | 307 kts | 84° |
| 2026-04-27 19:49 | 39.08741 | -76.52087 | 10639 ft | 334 kts | 84° |
| 2026-04-27 19:49 | 39.08858 | -76.48986 | 10873 ft | 355 kts | 84° |
| 2026-04-27 19:50 | 39.08868 | -76.45812 | 11598 ft | 359 kts | 93° |
| 2026-04-27 19:50 | 39.08183 | -76.42720 | 12212 ft | 367 kts | 107° |
| 2026-04-27 19:50 | 39.07317 | -76.39615 | 12907 ft | 371 kts | 107° |
| 2026-04-27 19:50 | 39.06479 | -76.36444 | 13558 ft | 376 kts | 106° |
| 2026-04-27 19:51 | 39.05644 | -76.33229 | 14210 ft | 381 kts | 106° |
| 2026-04-27 19:51 | 39.04776 | -76.29988 | 14814 ft | 385 kts | 107° |
| 2026-04-27 19:51 | 39.03904 | -76.26711 | 15394 ft | 388 kts | 105° |
| 2026-04-27 19:51 | 39.03549 | -76.23462 | 15874 ft | 387 kts | 86° |
| 2026-04-27 19:52 | 39.03694 | -76.20011 | 16549 ft | 388 kts | 83° |
| 2026-04-27 19:52 | 39.03881 | -76.16577 | 17182 ft | 392 kts | 83° |
| 2026-04-27 19:52 | 39.04060 | -76.13068 | 17866 ft | 395 kts | 83° |
| 2026-04-27 19:52 | 39.04230 | -76.09523 | 18559 ft | 399 kts | 83° |
| 2026-04-27 19:53 | 39.04582 | -76.02315 | 19746 ft | 408 kts | 83° |
| 2026-04-27 19:53 | 39.04744 | -75.98647 | 20356 ft | 413 kts | 83° |
| 2026-04-27 19:53 | 39.04909 | -75.94935 | 20968 ft | 418 kts | 83° |
| 2026-04-27 19:54 | 39.05080 | -75.91189 | 21567 ft | 422 kts | 82° |
| 2026-04-27 19:54 | 39.05253 | -75.87397 | 22168 ft | 427 kts | 82° |
| 2026-04-27 19:54 | 39.05421 | -75.83612 | 22757 ft | 432 kts | 82° |
| 2026-04-27 19:54 | 39.05591 | -75.79738 | 23336 ft | 437 kts | 82° |
| 2026-04-27 19:55 | 39.05763 | -75.75821 | 23951 ft | 440 kts | 82° |
| 2026-04-27 19:55 | 39.05934 | -75.71875 | 24462 ft | 444 kts | 82° |
| 2026-04-27 19:55 | 39.06107 | -75.67889 | 24931 ft | 448 kts | 82° |
| 2026-04-27 19:55 | 39.06279 | -75.63875 | 25410 ft | 452 kts | 81° |
| 2026-04-27 19:56 | 39.06451 | -75.59814 | 25885 ft | 457 kts | 81° |
| 2026-04-27 19:56 | 39.06624 | -75.55714 | 26355 ft | 461 kts | 81° |
| 2026-04-27 19:56 | 39.06794 | -75.51639 | 26814 ft | 465 kts | 81° |
| 2026-04-27 19:56 | 39.06967 | -75.47466 | 27282 ft | 469 kts | 81° |
| 2026-04-27 19:57 | 39.07140 | -75.43256 | 27747 ft | 473 kts | 81° |
| 2026-04-27 19:57 | 39.07312 | -75.39010 | 28255 ft | 477 kts | 81° |
| 2026-04-27 19:57 | 39.07466 | -75.34735 | 28698 ft | 483 kts | 82° |
| 2026-04-27 19:57 | 39.07239 | -75.30355 | 29124 ft | 496 kts | 92° |
| 2026-04-27 19:58 | 39.06505 | -75.25976 | 29584 ft | 506 kts | 101° |
| 2026-04-27 19:58 | 39.05412 | -75.21642 | 30011 ft | 512 kts | 103° |
| 2026-04-27 19:58 | 39.04301 | -75.17277 | 30430 ft | 515 kts | 103° |
| 2026-04-27 19:58 | 39.03211 | -75.12931 | 30808 ft | 519 kts | 103° |
| 2026-04-27 19:59 | 39.02095 | -75.08507 | 31203 ft | 522 kts | 103° |
| 2026-04-27 19:59 | 39.00963 | -75.04082 | 31823 ft | 521 kts | 103° |
| 2026-04-27 19:59 | 38.99832 | -74.99663 | 32407 ft | 519 kts | 102° |
| 2026-04-27 19:59 | 38.98713 | -74.95258 | 32978 ft | 518 kts | 102° |
| 2026-04-27 20:00 | 38.97594 | -74.90858 | 33564 ft | 518 kts | 102° |
| 2026-04-27 20:00 | 38.96468 | -74.86464 | 34154 ft | 517 kts | 102° |
| 2026-04-27 20:00 | 38.95342 | -74.82088 | 34692 ft | 516 kts | 102° |
| 2026-04-27 20:00 | 38.94222 | -74.77720 | 35249 ft | 514 kts | 102° |
| 2026-04-27 20:01 | 38.93120 | -74.73430 | 35809 ft | 512 kts | 102° |
| 2026-04-27 20:01 | 38.92003 | -74.69098 | 36403 ft | 510 kts | 102° |
| 2026-04-27 20:01 | 38.90888 | -74.64782 | 36978 ft | 508 kts | 102° |
| 2026-04-27 20:01 | 38.89778 | -74.60490 | 37552 ft | 506 kts | 103° |
| 2026-04-27 20:02 | 38.88671 | -74.56210 | 38138 ft | 504 kts | 103° |
| 2026-04-27 20:02 | 38.87563 | -74.51944 | 38727 ft | 503 kts | 103° |
| 2026-04-27 20:02 | 38.86459 | -74.47697 | 39234 ft | 501 kts | 103° |
| 2026-04-27 20:02 | 38.85357 | -74.43463 | 39670 ft | 500 kts | 103° |
| 2026-04-27 20:03 | 38.84269 | -74.39292 | 40102 ft | 500 kts | 104° |
| 2026-04-27 20:03 | 38.83166 | -74.35069 | 40560 ft | 499 kts | 104° |
| 2026-04-27 20:03 | 38.82065 | -74.30865 | 41094 ft | 496 kts | 104° |
| 2026-04-27 20:03 | 38.80968 | -74.26677 | 41566 ft | 495 kts | 105° |
| 2026-04-27 20:04 | 38.79871 | -74.22499 | 41992 ft | 495 kts | 105° |
| 2026-04-27 20:04 | 38.78757 | -74.18328 | 42406 ft | 495 kts | 107° |
| 2026-04-27 20:04 | 38.77302 | -74.14309 | 42790 ft | 499 kts | 117° |
| 2026-04-27 20:04 | 38.75465 | -74.10550 | 43239 ft | 498 kts | 122° |
| 2026-04-27 20:05 | 38.73525 | -74.06949 | 43670 ft | 497 kts | 123° |
| 2026-04-27 20:05 | 38.71632 | -74.03247 | 44092 ft | 496 kts | 120° |
| 2026-04-27 20:05 | 38.69841 | -73.99477 | 44523 ft | 495 kts | 120° |
| 2026-04-27 20:05 | 38.68021 | -73.95737 | 44928 ft | 494 kts | 122° |
| 2026-04-27 20:06 | 38.64196 | -73.88287 | 44985 ft | 508 kts | 122° |
| 2026-04-27 20:06 | 38.60364 | -73.80545 | 44992 ft | 522 kts | 122° |
| 2026-04-27 20:07 | 38.56399 | -73.72733 | 44987 ft | 530 kts | 122° |
| 2026-04-27 20:07 | 38.52413 | -73.64791 | 44993 ft | 531 kts | 122° |
| 2026-04-27 20:08 | 38.48346 | -73.56903 | 44981 ft | 532 kts | 123° |
| 2026-04-27 20:08 | 38.44190 | -73.49090 | 44979 ft | 532 kts | 123° |
| 2026-04-27 20:09 | 38.40250 | -73.41172 | 44979 ft | 532 kts | 122° |
| 2026-04-27 20:09 | 38.36212 | -73.33253 | 44967 ft | 533 kts | 122° |
| 2026-04-27 20:10 | 38.32237 | -73.25309 | 44978 ft | 531 kts | 122° |
| 2026-04-27 20:10 | 38.28224 | -73.17422 | 44973 ft | 531 kts | 122° |
| 2026-04-27 20:11 | 38.24226 | -73.09512 | 44972 ft | 531 kts | 122° |
| 2026-04-27 20:11 | 38.20240 | -73.01688 | 44962 ft | 531 kts | 122° |
| 2026-04-27 20:12 | 38.16219 | -72.93807 | 44958 ft | 530 kts | 122° |
| 2026-04-27 20:12 | 38.12163 | -72.86028 | 44957 ft | 528 kts | 123° |
| 2026-04-27 20:13 | 38.08137 | -72.78230 | 44944 ft | 528 kts | 122° |
| 2026-04-27 20:13 | 38.04115 | -72.70492 | 44940 ft | 529 kts | 123° |
| 2026-04-27 20:14 | 38.00074 | -72.62707 | 44927 ft | 528 kts | 122° |
| 2026-04-27 20:14 | 37.96136 | -72.54871 | 44928 ft | 526 kts | 122° |
| 2026-04-27 20:15 | 37.92153 | -72.47097 | 44924 ft | 526 kts | 123° |
| 2026-04-27 20:15 | 37.88214 | -72.39360 | 44918 ft | 526 kts | 122° |
| 2026-04-27 20:16 | 37.84244 | -72.31583 | 44918 ft | 526 kts | 122° |
| 2026-04-27 20:16 | 37.80286 | -72.23809 | 44912 ft | 526 kts | 122° |
| 2026-04-27 20:17 | 37.76310 | -72.16042 | 44912 ft | 527 kts | 123° |
| 2026-04-27 20:17 | 37.72355 | -72.08322 | 44903 ft | 528 kts | 123° |
| 2026-04-27 20:18 | 37.68362 | -72.00552 | 44899 ft | 528 kts | 123° |
| 2026-04-27 20:18 | 37.64149 | -71.92956 | 44899 ft | 529 kts | 126° |
| 2026-04-27 20:19 | 37.59791 | -71.85471 | 44904 ft | 531 kts | 126° |
| 2026-04-27 20:19 | 37.55491 | -71.77994 | 44897 ft | 531 kts | 126° |
| 2026-04-27 20:20 | 37.51123 | -71.70497 | 44897 ft | 531 kts | 126° |
| 2026-04-27 20:20 | 37.46768 | -71.62985 | 44888 ft | 531 kts | 126° |
| 2026-04-27 20:21 | 37.42406 | -71.55513 | 44872 ft | 526 kts | 126° |
| 2026-04-27 20:21 | 37.38122 | -71.48171 | 44869 ft | 524 kts | 127° |
| 2026-04-27 20:22 | 37.33803 | -71.40795 | 44866 ft | 523 kts | 127° |
| 2026-04-27 20:22 | 37.29488 | -71.33439 | 44864 ft | 523 kts | 127° |
| 2026-04-27 20:23 | 37.25147 | -71.26052 | 44857 ft | 526 kts | 127° |
| 2026-04-27 20:23 | 37.20796 | -71.18671 | 44856 ft | 527 kts | 127° |
| 2026-04-27 20:24 | 37.16433 | -71.11280 | 44853 ft | 530 kts | 127° |
| 2026-04-27 20:24 | 37.12074 | -71.03918 | 44852 ft | 526 kts | 127° |
| 2026-04-27 20:25 | 37.07712 | -70.96559 | 44832 ft | 526 kts | 127° |
| 2026-04-27 20:25 | 37.03346 | -70.89217 | 44830 ft | 526 kts | 127° |
| 2026-04-27 20:26 | 36.98976 | -70.81879 | 44818 ft | 526 kts | 127° |
| 2026-04-27 20:26 | 36.94616 | -70.74580 | 44823 ft | 531 kts | 127° |
| 2026-04-27 20:27 | 36.90181 | -70.67162 | 44819 ft | 533 kts | 127° |
| 2026-04-27 20:27 | 36.85739 | -70.59758 | 44809 ft | 533 kts | 128° |
| 2026-04-27 20:28 | 36.81297 | -70.52363 | 44811 ft | 531 kts | 128° |
| 2026-04-27 20:28 | 36.77617 | -70.46255 | 44806 ft | 529 kts | 128° |
| 2026-04-27 20:29 | 36.72516 | -70.37801 | 44801 ft | 524 kts | 128° |
| 2026-04-27 20:29 | 36.68120 | -70.30533 | 44788 ft | 529 kts | 128° |
| 2026-04-27 20:30 | 36.63686 | -70.23216 | 44792 ft | 529 kts | 128° |
| 2026-04-27 20:30 | 36.59255 | -70.15924 | 44786 ft | 525 kts | 128° |
| 2026-04-27 20:31 | 36.54876 | -70.08730 | 44786 ft | 525 kts | 129° |
| 2026-04-27 20:31 | 36.50463 | -70.01496 | 44779 ft | 525 kts | 129° |
| 2026-04-27 20:32 | 36.46050 | -69.94278 | 44762 ft | 524 kts | 129° |
| 2026-04-27 20:32 | 36.41653 | -69.87102 | 44767 ft | 522 kts | 129° |
| 2026-04-27 20:33 | 36.37277 | -69.79973 | 44769 ft | 519 kts | 129° |
| 2026-04-27 20:33 | 36.32924 | -69.72899 | 44762 ft | 520 kts | 129° |
| 2026-04-27 20:34 | 36.28535 | -69.65778 | 44762 ft | 520 kts | 129° |
| 2026-04-27 20:34 | 36.24139 | -69.58665 | 44765 ft | 520 kts | 129° |
| 2026-04-27 20:35 | 36.19744 | -69.51564 | 44769 ft | 519 kts | 129° |
| 2026-04-27 20:35 | 36.15200 | -69.44787 | 44748 ft | 512 kts | 139° |
| 2026-04-27 20:36 | 36.09606 | -69.39365 | 44765 ft | 511 kts | 147° |
| 2026-04-27 20:36 | 36.03945 | -69.34021 | 44763 ft | 513 kts | 143° |
| 2026-04-27 20:37 | 35.98339 | -69.28586 | 44761 ft | 512 kts | 146° |
| 2026-04-27 20:37 | 35.92670 | -69.23261 | 44752 ft | 512 kts | 144° |
| 2026-04-27 20:38 | 35.87088 | -69.17889 | 44751 ft | 513 kts | 146° |
| 2026-04-27 20:38 | 35.81410 | -69.12547 | 44733 ft | 513 kts | 145° |
| 2026-04-27 20:39 | 35.75764 | -69.07162 | 44734 ft | 513 kts | 145° |
| 2026-04-27 20:39 | 35.70095 | -69.01822 | 44734 ft | 513 kts | 145° |
| 2026-04-27 20:40 | 35.64458 | -68.96487 | 44733 ft | 515 kts | 146° |
| 2026-04-27 20:40 | 35.58768 | -68.91132 | 44735 ft | 515 kts | 146° |
| 2026-04-27 20:41 | 35.53077 | -68.85775 | 44736 ft | 516 kts | 146° |
| 2026-04-27 20:41 | 35.47377 | -68.80425 | 44736 ft | 516 kts | 146° |
| 2026-04-27 20:42 | 35.41719 | -68.75120 | 44733 ft | 516 kts | 146° |
| 2026-04-27 20:42 | 35.36014 | -68.69784 | 44728 ft | 516 kts | 146° |
| 2026-04-27 20:43 | 35.30309 | -68.64456 | 44728 ft | 516 kts | 146° |
| 2026-04-27 20:43 | 35.24606 | -68.59141 | 44726 ft | 515 kts | 146° |
| 2026-04-27 20:44 | 35.18940 | -68.53868 | 44717 ft | 515 kts | 146° |
| 2026-04-27 20:44 | 35.13238 | -68.48573 | 44722 ft | 515 kts | 146° |
| 2026-04-27 20:45 | 35.07532 | -68.43283 | 44724 ft | 515 kts | 146° |
| 2026-04-27 20:45 | 35.01854 | -68.38029 | 44728 ft | 515 kts | 146° |
| 2026-04-27 20:46 | 34.96148 | -68.32757 | 44715 ft | 514 kts | 146° |
| 2026-04-27 20:46 | 34.90444 | -68.27498 | 44708 ft | 514 kts | 146° |
| 2026-04-27 20:47 | 34.84736 | -68.22244 | 44708 ft | 514 kts | 147° |
| 2026-04-27 20:47 | 34.79076 | -68.17042 | 44716 ft | 512 kts | 147° |
| 2026-04-27 20:48 | 34.73376 | -68.11815 | 44727 ft | 513 kts | 147° |
| 2026-04-27 20:48 | 34.70527 | -68.09205 | 44834 ft | 513 kts | 147° |
| 2026-04-27 20:48 | 34.67668 | -68.06590 | 44959 ft | 515 kts | 147° |
| 2026-04-27 20:49 | 34.61935 | -68.01348 | 44982 ft | 516 kts | 147° |
| 2026-04-27 20:49 | 34.56199 | -67.96117 | 45000 ft | 516 kts | 147° |
| 2026-04-27 20:50 | 34.50504 | -67.90929 | 44992 ft | 516 kts | 147° |
| 2026-04-27 20:50 | 34.44763 | -67.85710 | 44996 ft | 516 kts | 147° |
| 2026-04-27 20:51 | 34.39029 | -67.80506 | 44994 ft | 515 kts | 147° |
| 2026-04-27 20:51 | 34.33291 | -67.75307 | 44997 ft | 515 kts | 147° |
| 2026-04-27 20:52 | 34.27588 | -67.70150 | 44988 ft | 515 kts | 147° |
| 2026-04-27 20:52 | 34.21850 | -67.64969 | 44989 ft | 515 kts | 147° |
| 2026-04-27 20:53 | 34.16160 | -67.59697 | 44979 ft | 518 kts | 142° |
| 2026-04-27 20:53 | 34.11517 | -67.52985 | 44976 ft | 528 kts | 124° |
| 2026-04-27 20:54 | 34.06530 | -67.41124 | 45011 ft | 530 kts | 120° |
| 2026-04-27 20:55 | 34.02877 | -67.33405 | 45007 ft | 530 kts | 122° |
| 2026-04-27 20:55 | 33.99449 | -67.25547 | 45007 ft | 530 kts | 120° |
| 2026-04-27 20:56 | 33.95888 | -67.17765 | 44999 ft | 531 kts | 122° |
| 2026-04-27 20:56 | 33.92372 | -67.09934 | 44993 ft | 532 kts | 121° |
| 2026-04-27 20:57 | 33.88859 | -67.02182 | 45001 ft | 531 kts | 122° |
| 2026-04-27 20:57 | 33.85315 | -66.94385 | 44946 ft | 528 kts | 122° |
| 2026-04-27 20:57 | 33.83580 | -66.90531 | 44181 ft | 520 kts | 122° |
| 2026-04-27 20:58 | 33.81857 | -66.86754 | 43501 ft | 510 kts | 123° |
| 2026-04-27 20:58 | 33.80161 | -66.83054 | 42850 ft | 501 kts | 123° |
| 2026-04-27 20:58 | 33.78503 | -66.79414 | 42205 ft | 492 kts | 123° |
| 2026-04-27 20:58 | 33.76870 | -66.75824 | 41570 ft | 487 kts | 123° |
| 2026-04-27 20:59 | 33.75243 | -66.72266 | 40937 ft | 487 kts | 124° |
| 2026-04-27 20:59 | 33.73628 | -66.68748 | 40306 ft | 488 kts | 124° |
| 2026-04-27 20:59 | 33.71993 | -66.65176 | 39665 ft | 489 kts | 124° |
| 2026-04-27 20:59 | 33.70351 | -66.61584 | 39023 ft | 490 kts | 124° |
| 2026-04-27 21:00 | 33.68707 | -66.57999 | 38324 ft | 490 kts | 125° |
| 2026-04-27 21:00 | 33.67067 | -66.54430 | 37679 ft | 487 kts | 125° |
| 2026-04-27 21:00 | 33.65428 | -66.50866 | 37036 ft | 488 kts | 125° |
| 2026-04-27 21:00 | 33.63790 | -66.47307 | 36397 ft | 488 kts | 125° |
| 2026-04-27 21:01 | 33.62147 | -66.43739 | 35748 ft | 488 kts | 125° |
| 2026-04-27 21:01 | 33.60503 | -66.40171 | 35103 ft | 488 kts | 126° |
| 2026-04-27 21:01 | 33.58859 | -66.36610 | 34463 ft | 488 kts | 126° |
| 2026-04-27 21:01 | 33.57240 | -66.33106 | 33846 ft | 487 kts | 126° |
| 2026-04-27 21:02 | 33.55594 | -66.29549 | 33189 ft | 488 kts | 126° |
| 2026-04-27 21:02 | 33.53944 | -66.25989 | 32548 ft | 489 kts | 125° |
| 2026-04-27 21:02 | 33.52286 | -66.22411 | 31905 ft | 493 kts | 124° |
| 2026-04-27 21:02 | 33.50622 | -66.18821 | 31257 ft | 492 kts | 124° |
| 2026-04-27 21:03 | 33.48960 | -66.15238 | 30605 ft | 493 kts | 124° |
| 2026-04-27 21:03 | 33.47303 | -66.11673 | 29938 ft | 486 kts | 124° |
| 2026-04-27 21:03 | 33.45671 | -66.08161 | 29272 ft | 481 kts | 124° |
| 2026-04-27 21:03 | 33.44039 | -66.04660 | 28230 ft | 477 kts | 124° |
| 2026-04-27 21:04 | 33.42458 | -66.01269 | 27114 ft | 471 kts | 123° |
| 2026-04-27 21:04 | 33.40879 | -65.97881 | 25936 ft | 461 kts | 123° |
| 2026-04-27 21:04 | 33.39328 | -65.94559 | 24830 ft | 453 kts | 123° |
| 2026-04-27 21:04 | 33.37798 | -65.91293 | 23843 ft | 448 kts | 123° |
| 2026-04-27 21:05 | 33.36276 | -65.88066 | 22812 ft | 443 kts | 123° |
| 2026-04-27 21:05 | 33.34773 | -65.84879 | 21891 ft | 435 kts | 123° |
| 2026-04-27 21:05 | 33.33303 | -65.81754 | 21389 ft | 432 kts | 123° |
| 2026-04-27 21:05 | 33.31831 | -65.78634 | 20940 ft | 430 kts | 123° |
| 2026-04-27 21:06 | 33.30365 | -65.75531 | 20493 ft | 428 kts | 123° |
| 2026-04-27 21:06 | 33.28924 | -65.72479 | 20052 ft | 426 kts | 123° |
| 2026-04-27 21:06 | 33.27473 | -65.69409 | 19613 ft | 423 kts | 123° |
| 2026-04-27 21:06 | 33.26050 | -65.66403 | 19179 ft | 422 kts | 123° |
| 2026-04-27 21:07 | 33.24613 | -65.63367 | 18747 ft | 419 kts | 123° |
| 2026-04-27 21:07 | 33.23180 | -65.60344 | 18309 ft | 417 kts | 123° |
| 2026-04-27 21:07 | 33.21760 | -65.57352 | 17852 ft | 413 kts | 123° |
| 2026-04-27 21:07 | 33.20350 | -65.54379 | 17422 ft | 409 kts | 123° |
| 2026-04-27 21:08 | 33.18952 | -65.51436 | 17000 ft | 406 kts | 123° |
| 2026-04-27 21:08 | 33.17564 | -65.48519 | 16581 ft | 403 kts | 123° |
| 2026-04-27 21:08 | 33.16204 | -65.45661 | 16172 ft | 400 kts | 123° |
| 2026-04-27 21:08 | 33.14837 | -65.42791 | 15761 ft | 397 kts | 123° |
| 2026-04-27 21:09 | 33.13479 | -65.39941 | 15352 ft | 393 kts | 123° |
| 2026-04-27 21:09 | 33.12130 | -65.37115 | 14943 ft | 390 kts | 123° |
| 2026-04-27 21:09 | 33.10791 | -65.34310 | 14551 ft | 388 kts | 123° |
| 2026-04-27 21:09 | 33.09461 | -65.31526 | 14152 ft | 385 kts | 123° |
| 2026-04-27 21:10 | 33.08144 | -65.28770 | 13738 ft | 382 kts | 123° |
| 2026-04-27 21:10 | 33.06699 | -65.26144 | 13283 ft | 374 kts | 135° |
| 2026-04-27 21:10 | 33.04733 | -65.24227 | 12912 ft | 361 kts | 153° |
| 2026-04-27 21:10 | 33.02459 | -65.23069 | 12568 ft | 353 kts | 165° |
| 2026-04-27 21:11 | 33.00172 | -65.22153 | 12221 ft | 351 kts | 165° |
| 2026-04-27 21:11 | 32.97873 | -65.21223 | 11825 ft | 348 kts | 165° |
| 2026-04-27 21:11 | 32.95589 | -65.20288 | 11458 ft | 345 kts | 165° |
| 2026-04-27 21:11 | 32.93328 | -65.19366 | 11099 ft | 342 kts | 165° |
| 2026-04-27 21:12 | 32.91136 | -65.18474 | 10744 ft | 320 kts | 165° |
| 2026-04-27 21:12 | 32.89103 | -65.17645 | 10422 ft | 298 kts | 165° |
| 2026-04-27 21:12 | 32.87196 | -65.16873 | 10121 ft | 284 kts | 165° |
| 2026-04-27 21:12 | 32.85346 | -65.16128 | 9823 ft | 279 kts | 165° |
| 2026-04-27 21:13 | 32.83547 | -65.15400 | 9533 ft | 277 kts | 165° |
| 2026-04-27 21:13 | 32.81723 | -65.14660 | 9251 ft | 276 kts | 165° |
| 2026-04-27 21:13 | 32.79912 | -65.13925 | 8970 ft | 275 kts | 165° |
| 2026-04-27 21:13 | 32.78110 | -65.13196 | 8692 ft | 273 kts | 165° |
| 2026-04-27 21:14 | 32.76313 | -65.12468 | 8411 ft | 272 kts | 165° |
| 2026-04-27 21:14 | 32.74526 | -65.11745 | 8135 ft | 271 kts | 165° |
| 2026-04-27 21:14 | 32.72741 | -65.11023 | 7856 ft | 270 kts | 165° |
| 2026-04-27 21:14 | 32.70964 | -65.10305 | 7577 ft | 270 kts | 165° |
| 2026-04-27 21:15 | 32.69192 | -65.09588 | 7303 ft | 269 kts | 165° |
| 2026-04-27 21:15 | 32.67454 | -65.08886 | 7033 ft | 267 kts | 165° |
| 2026-04-27 21:15 | 32.65699 | -65.08177 | 6761 ft | 266 kts | 165° |
| 2026-04-27 21:15 | 32.63944 | -65.07469 | 6490 ft | 266 kts | 165° |
| 2026-04-27 21:16 | 32.62198 | -65.06764 | 6205 ft | 264 kts | 165° |
| 2026-04-27 21:16 | 32.60459 | -65.06063 | 5931 ft | 264 kts | 164° |
| 2026-04-27 21:16 | 32.58732 | -65.05367 | 5660 ft | 261 kts | 164° |
| 2026-04-27 21:16 | 32.57012 | -65.04673 | 5394 ft | 261 kts | 164° |
| 2026-04-27 21:17 | 32.55298 | -65.03983 | 5132 ft | 259 kts | 163° |
| 2026-04-27 21:17 | 32.53601 | -65.03299 | 4862 ft | 256 kts | 163° |
| 2026-04-27 21:17 | 32.51937 | -65.02630 | 4594 ft | 257 kts | 163° |
| 2026-04-27 21:17 | 32.50257 | -65.01953 | 4326 ft | 254 kts | 163° |
| 2026-04-27 21:18 | 32.48596 | -65.01284 | 4072 ft | 247 kts | 163° |
| 2026-04-27 21:18 | 32.47018 | -65.00648 | 3813 ft | 233 kts | 164° |
| 2026-04-27 21:18 | 32.45529 | -65.00049 | 3582 ft | 219 kts | 164° |
| 2026-04-27 21:18 | 32.44124 | -64.99485 | 3365 ft | 209 kts | 163° |
| 2026-04-27 21:19 | 32.42785 | -64.98869 | 3134 ft | 207 kts | 154° |
| 2026-04-27 21:19 | 32.41752 | -64.97681 | 2889 ft | 211 kts | 128° |
| 2026-04-27 21:19 | 32.41241 | -64.96040 | 2695 ft | 216 kts | 108° |
| 2026-04-27 21:20 | 32.40671 | -64.92589 | 2320 ft | 213 kts | 107° |
| 2026-04-27 21:20 | 32.40378 | -64.90876 | 2096 ft | 211 kts | 108° |
| 2026-04-27 21:20 | 32.40090 | -64.89177 | 1869 ft | 211 kts | 108° |
| 2026-04-27 21:20 | 32.39797 | -64.87465 | 1692 ft | 213 kts | 107° |
| 2026-04-27 21:21 | 32.39504 | -64.85751 | 1708 ft | 213 kts | 107° |
| 2026-04-27 21:21 | 32.39209 | -64.84037 | 1692 ft | 212 kts | 107° |
| 2026-04-27 21:21 | 32.38913 | -64.82325 | 1696 ft | 213 kts | 107° |
| 2026-04-27 21:21 | 32.38620 | -64.80621 | 1693 ft | 212 kts | 107° |
| 2026-04-27 21:22 | 32.38327 | -64.78929 | 1695 ft | 213 kts | 107° |
| 2026-04-27 21:22 | 32.38036 | -64.77237 | 1505 ft | 202 kts | 106° |
| 2026-04-27 21:22 | 32.37784 | -64.75744 | 1226 ft | 174 kts | 108° |
| 2026-04-27 21:22 | 32.37540 | -64.74367 | 979 ft | 165 kts | 108° |
| 2026-04-27 21:23 | 32.37321 | -64.73115 | 741 ft | 142 kts | 106° |
| 2026-04-27 21:23 | 32.37136 | -64.72034 | 544 ft | 128 kts | 106° |
| 2026-04-27 21:23 | 32.36950 | -64.71027 | 403 ft | 123 kts | 108° |
| 2026-04-27 21:23 | 32.36784 | -64.70059 | 238 ft | 121 kts | 105° |
| 2026-04-27 21:24 | 32.36622 | -64.69082 | 60 ft | 117 kts | 107° |
| 2026-04-27 21:24 | 32.36473 | -64.68234 | 22 ft | 91 kts | 104° |
| 2026-04-27 21:24 | 32.36379 | -64.67726 | 15 ft | 44 kts | 101° |
| 2026-04-27 21:24 | 32.36327 | -64.67412 | 16 ft | 37 kts | 101° |
| 2026-04-27 21:25 | 32.36291 | -64.67194 | 17 ft | 22 kts | 101° |
| 2026-04-27 21:25 | 32.36314 | -64.67039 | 21 ft | 18 kts | 64° |
| 2026-04-27 21:25 | 32.36353 | -64.66930 | 24 ft | 10 kts | 57° |
| 2026-04-27 21:25 | 32.36384 | -64.66938 | 24 ft | 4 kts | 298° |
| 2026-04-27 21:26 | 32.36394 | -64.66980 | 24 ft | 7 kts | 285° |
| 2026-04-27 21:26 | 32.36432 | -64.67000 | 27 ft | 6 kts | 20° |
| 2026-04-27 21:26 | 32.36463 | -64.66969 | 25 ft | 6 kts | 78° |
| 2026-04-27 21:26 | 32.36491 | -64.66933 | 25 ft | 7 kts | 40° |
| 2026-04-27 21:27 | 32.36496 | -64.66900 | 25 ft | 1 kts | 155° |
| 2026-04-27 21:27 | 32.36487 | -64.66904 | 26 ft | 0 kts | 195° |